Vilo Acuna International Airport
MUCL : now visible

Airfield :











YOU CAN JOIN US ON...

 
LOGIN :

Register | Disclaimer

   EN    FR    IT 

 









Legend :    VFR   Marginal VFR   IFR   Intensive IFR   Very Intensive IFR
Visi :
Ceiling :
>= 8 km
>= 3000ft
5 to 8 km
1000 to 3000 ft
1500m to 5 km
500 to 1000 ft
800 to 1500m
200 to 500 ft
< 800m
< 200 ft
Symbols :   Thunderstorms  Fog  Heavy snow  Heavy precipitations  Wind > 20 kt






- Airport Elevation : 10 ft
- IATA code : CYO


MUCL - Vilo Acuna International

CURRENT METAR :
  • 231451Z 06017KT 9000 SCT020 25/19 Q1019

EXPIRED METARs :
  • 231352Z 06015KT 9000 SCT020 23/19 Q1019
  • 231250Z 06015KT 9000 SCT020 23/19 Q1018

TAF MUCL
Valid from the 23 at 12:00 until the 24 at 00:00 UTC


231100Z 2312/2324 06014KT 9000 SCT020



MET'MAP, your aeronautical weather chart ! - Copyright ORBIFLY December 2007 - Disclaimer

ORBIFLY MET'MAP TEAM :

Programming & Development : Alexandra Zaïnal
Concept & original design : Baudouin d'Aumeries
Assistance for programming : Marc-Olivier Méhu
Technical & hardware support : Manuel Goepfert

Contact : metmap@orbifly.com




SOURCES & CREDITS :

   NOAA       Earth
Advisory